Portada
METAR-TAF:

METAR-TAF

Aeropuertos :

Orange, Francia

latitud: 44-08N, longitud: 004-50E, altitud: 60 m

Observación

El informe se hizo hace 24 minutos, a las 20:00 UTC
Viento 16 kt del norte-noroeste
Temperatura 4°C
Humedad 81%
Presión 1018 hPa
Visibilidad: 9000 m

METAR: LFMO 292000Z AUTO 34016KT 9000 NSC 04/01 Q1018 NOSIG

Hora: 21:24 (20:24 UTC)

Pronóstico

El informe se hizo hace 6 horas y 24 minutos, a las 14:00 UTC
Pronóstico válido del 29 a las 15 UTC al 30 a las 15 UTC
Viento 15 kt del norte
Visibilidad 10 km o más
sin nubes por debajo de 1500 m y sin presencia de cumulonimbus.

TAF: LFMO 291400Z 2915/3015 35015KT CAVOK TX10/3012Z TN03/3005Z

Observaciones y pronósticos meteorológicos de más de 4000 aeropuertos (mensajes METAR y TAF).

Los puntos amarillos y rojos representan las estaciones disponibles.

Ponga el ratón en el punto deseado para ver el nombre de la estación.

Haga clic para ver las observaciones y los pronósticos meteorológicos.

Para cambiar el mapa : haga clic en los botones verdes con una cruz de color negro para hacer un zoom, en el botón verde con un guión para alejar o en las flechas verdes para mapas adyacentes.


METAR-TAF: